createdAt,value
2022-11-22T00:01:07.320Z,1.88
2022-11-22T00:03:34.589Z,2.67
2022-11-22T00:06:02.064Z,2.75
2022-11-22T00:08:29.451Z,1.83
2022-11-22T00:10:56.691Z,2.80
2022-11-22T00:13:24.018Z,3.05
2022-11-22T00:15:59.004Z,2.92
2022-11-22T00:20:53.532Z,3.70
2022-11-22T00:23:20.861Z,2.72
2022-11-22T00:25:48.252Z,2.70
2022-11-22T00:28:15.664Z,3.97
2022-11-22T00:30:42.943Z,2.25
2022-11-22T00:33:10.243Z,2.47
2022-11-22T00:35:37.626Z,3.10
2022-11-22T00:38:05.065Z,4.05
2022-11-22T00:40:32.302Z,2.65
2022-11-22T00:42:59.831Z,2.47
2022-11-22T00:45:27.117Z,2.53
2022-11-22T00:47:54.421Z,2.10
2022-11-22T00:50:21.845Z,3.33
2022-11-22T00:52:49.266Z,3.65
2022-11-22T00:55:16.495Z,1.88
2022-11-22T00:57:43.874Z,2.15
2022-11-22T01:00:11.498Z,2.20
2022-11-22T01:02:38.877Z,2.80
2022-11-22T01:05:06.365Z,2.38
2022-11-22T01:07:33.793Z,2.47
2022-11-22T01:10:01.097Z,2.63
2022-11-22T01:12:28.510Z,2.70
2022-11-22T01:14:55.876Z,2.50
2022-11-22T01:17:23.172Z,3.30
2022-11-22T01:19:53.683Z,2.20
2022-11-22T01:22:21.294Z,2.45
2022-11-22T01:24:48.494Z,2.05
2022-11-22T01:27:15.847Z,2.20
2022-11-22T01:29:43.205Z,2.80
2022-11-22T01:32:10.508Z,1.63
2022-11-22T01:34:37.798Z,1.92
2022-11-22T01:37:05.287Z,2.17
2022-11-22T01:39:32.824Z,2.22
2022-11-22T01:42:00.392Z,1.98
2022-11-22T01:44:29.828Z,2.35
2022-11-22T01:46:58.739Z,1.77
2022-11-22T01:49:38.175Z,1.67
2022-11-22T01:52:10.704Z,1.70
2022-11-22T01:54:40.127Z,1.52
2022-11-22T01:57:11.270Z,1.98
2022-11-22T01:59:40.423Z,2.13
2022-11-22T02:02:07.867Z,1.60
2022-11-22T02:04:36.535Z,2.08
2022-11-22T02:07:10.079Z,1.55
2022-11-22T02:09:38.682Z,1.67
2022-11-22T02:12:07.198Z,1.73
2022-11-22T02:14:34.926Z,2.30
2022-11-22T02:17:02.211Z,1.80
2022-11-22T02:19:29.614Z,1.80
2022-11-22T02:21:59.710Z,2.10
2022-11-22T02:24:37.304Z,2.03
2022-11-22T02:27:04.817Z,1.70
2022-11-22T02:29:32.804Z,1.75
2022-11-22T02:32:00.180Z,1.90
2022-11-22T02:34:27.725Z,1.33
2022-11-22T02:36:55.369Z,1.92
2022-11-22T02:39:25.341Z,2.22
2022-11-22T02:41:53.025Z,1.45
2022-11-22T02:44:21.190Z,2.33
2022-11-22T02:46:53.312Z,1.52
2022-11-22T02:49:21.714Z,2.08
2022-11-22T02:51:49.415Z,2.40
2022-11-22T02:54:16.966Z,2.30
2022-11-22T02:56:44.322Z,1.88
2022-11-22T02:59:11.628Z,2.00
2022-11-22T03:01:39.001Z,1.92
2022-11-22T03:04:06.392Z,1.60
2022-11-22T03:06:33.698Z,1.70
2022-11-22T03:09:01.242Z,2.00
2022-11-22T03:11:28.682Z,1.88
2022-11-22T03:13:56.017Z,2.20
2022-11-22T03:16:23.400Z,2.00
2022-11-22T03:18:50.916Z,1.85
2022-11-22T03:21:18.130Z,2.90
2022-11-22T03:23:45.615Z,3.30
2022-11-22T03:26:13.576Z,1.83
2022-11-22T03:28:40.910Z,1.67
2022-11-22T03:31:08.850Z,2.20
2022-11-22T03:33:36.543Z,1.60
2022-11-22T03:36:04.357Z,1.55
2022-11-22T03:38:32.069Z,2.13
2022-11-22T03:40:59.483Z,2.15
2022-11-22T03:43:26.837Z,2.38
2022-11-22T03:45:54.131Z,1.80
2022-11-22T03:48:21.700Z,1.90
2022-11-22T03:50:48.960Z,1.83
2022-11-22T03:53:16.371Z,2.15
2022-11-22T03:55:43.697Z,3.05
2022-11-22T03:58:11.040Z,1.52
2022-11-22T04:00:38.559Z,1.55
2022-11-22T04:03:05.916Z,2.00
2022-11-22T04:05:33.141Z,1.70
2022-11-22T04:08:00.683Z,1.75
2022-11-22T04:10:28.084Z,2.13
2022-11-22T04:13:01.514Z,2.08
2022-11-22T04:15:29.147Z,1.90
2022-11-22T04:17:56.398Z,2.17
2022-11-22T04:20:43.999Z,1.95
2022-11-22T04:23:15.297Z,2.05
2022-11-22T04:25:44.037Z,2.28
2022-11-22T04:28:11.744Z,1.70
2022-11-22T04:31:11.899Z,2.03
2022-11-22T04:33:39.397Z,2.70
2022-11-22T04:36:13.189Z,1.90
2022-11-22T04:38:41.004Z,1.60
2022-11-22T04:41:08.341Z,2.38
2022-11-22T04:43:54.444Z,1.77
2022-11-22T04:46:21.903Z,2.03
2022-11-22T04:48:49.281Z,2.08
2022-11-22T04:51:35.470Z,1.50
2022-11-22T04:54:02.909Z,1.80
2022-11-22T04:56:30.124Z,2.15
2022-11-22T04:58:57.536Z,1.90
2022-11-22T05:01:25.070Z,2.00
2022-11-22T05:03:52.439Z,1.60
2022-11-22T05:06:19.779Z,1.63
2022-11-22T05:08:47.261Z,2.00
2022-11-22T05:11:14.507Z,2.10
2022-11-22T05:13:43.110Z,2.00
2022-11-22T05:16:11.975Z,1.60
2022-11-22T05:18:39.602Z,1.80
2022-11-22T05:21:07.642Z,1.58
2022-11-22T05:23:53.875Z,1.30
2022-11-22T05:26:22.035Z,2.70
2022-11-22T05:28:49.761Z,1.90
2022-11-22T05:31:18.924Z,2.22
2022-11-22T05:33:46.650Z,1.60
2022-11-22T05:36:14.222Z,1.60
2022-11-22T05:38:41.529Z,2.15
2022-11-22T05:41:10.557Z,2.60
2022-11-22T05:43:38.440Z,2.10
2022-11-22T05:46:13.151Z,1.98
2022-11-22T05:48:42.262Z,2.15
2022-11-22T05:51:11.215Z,1.88
2022-11-22T05:53:39.633Z,1.80
2022-11-22T05:56:07.856Z,2.00
2022-11-22T05:58:35.547Z,1.90
2022-11-22T06:01:07.039Z,1.70
2022-11-22T06:03:34.719Z,1.83
2022-11-22T06:06:01.929Z,1.65
2022-11-22T06:08:30.738Z,1.38
2022-11-22T06:11:04.929Z,1.98
2022-11-22T06:13:38.385Z,3.78
2022-11-22T06:16:06.631Z,1.75
2022-11-22T06:18:34.232Z,2.45
2022-11-22T06:21:02.713Z,2.25
2022-11-22T06:23:30.221Z,2.20
2022-11-22T06:26:07.444Z,2.22
2022-11-22T06:28:35.321Z,2.10
2022-11-22T06:31:06.801Z,1.98
2022-11-22T06:33:34.499Z,1.80
2022-11-22T06:36:03.030Z,2.00
2022-11-22T06:38:30.342Z,2.05
2022-11-22T06:41:04.172Z,1.83
2022-11-22T06:43:32.034Z,1.88
2022-11-22T06:45:59.993Z,2.05
2022-11-22T06:48:31.081Z,1.95
2022-11-22T06:51:02.179Z,1.67
2022-11-22T06:53:46.823Z,1.70
2022-11-22T06:56:19.826Z,1.77
2022-11-22T06:58:48.275Z,1.38
2022-11-22T07:01:17.229Z,1.50
2022-11-22T07:03:44.752Z,1.85
2022-11-22T07:06:13.002Z,1.80
2022-11-22T07:08:40.879Z,1.95
2022-11-22T07:11:26.256Z,2.20
2022-11-22T07:13:54.764Z,1.88
2022-11-22T07:16:22.853Z,2.22
2022-11-22T07:18:50.591Z,1.73
2022-11-22T07:21:19.053Z,2.10
2022-11-22T07:23:47.693Z,1.90
2022-11-22T07:26:15.902Z,2.05
2022-11-22T07:28:43.468Z,1.90
2022-11-22T07:31:12.277Z,1.60
2022-11-22T07:33:39.914Z,2.45
2022-11-22T07:36:10.564Z,2.40
2022-11-22T07:38:38.456Z,2.25
2022-11-22T07:41:06.362Z,2.47
2022-11-22T07:43:33.870Z,2.13
2022-11-22T07:46:01.756Z,1.95
2022-11-22T07:48:29.245Z,1.60
2022-11-22T07:50:56.676Z,1.77
2022-11-22T07:53:24.207Z,1.98
2022-11-22T07:55:51.629Z,2.05
2022-11-22T07:58:19.058Z,2.47
2022-11-22T08:00:46.661Z,1.88
2022-11-22T08:03:17.642Z,2.78
2022-11-22T08:05:45.710Z,1.65
2022-11-22T08:08:13.036Z,1.58
2022-11-22T08:10:40.436Z,1.70
2022-11-22T08:13:07.806Z,1.98
2022-11-22T08:15:35.225Z,1.70
2022-11-22T08:18:02.467Z,1.55
2022-11-22T08:20:30.000Z,1.80
2022-11-22T08:22:57.345Z,1.50
2022-11-22T08:25:24.644Z,1.83
2022-11-22T08:27:52.098Z,2.35
2022-11-22T08:30:19.489Z,2.35
2022-11-22T08:32:46.725Z,1.48
2022-11-22T08:35:14.167Z,1.52
2022-11-22T08:37:41.550Z,1.33
2022-11-22T08:40:12.327Z,1.48
2022-11-22T08:42:39.851Z,1.60
2022-11-22T08:45:08.230Z,1.38
2022-11-22T08:47:35.677Z,1.83
2022-11-22T08:50:03.102Z,2.08
2022-11-22T08:52:30.575Z,1.50
2022-11-22T08:54:57.824Z,1.45
2022-11-22T08:57:25.330Z,1.50
2022-11-22T08:59:52.756Z,1.52
2022-11-22T09:02:20.031Z,1.77
2022-11-22T09:04:47.420Z,1.73
2022-11-22T09:10:04.242Z,1.80
2022-11-22T09:12:31.753Z,2.42
2022-11-22T09:14:59.032Z,1.80
2022-11-22T09:17:26.333Z,1.85
2022-11-22T09:19:53.874Z,1.65
2022-11-22T09:22:24.079Z,1.95
2022-11-22T09:24:55.868Z,1.50
2022-11-22T09:27:23.138Z,1.50
2022-11-22T09:29:54.488Z,2.78
2022-11-22T09:32:33.687Z,1.38
2022-11-22T09:35:01.512Z,2.08
2022-11-22T09:37:28.978Z,2.28
2022-11-22T09:39:56.457Z,1.52
2022-11-22T09:42:42.130Z,1.90
2022-11-22T09:45:15.514Z,1.77
2022-11-22T09:47:46.961Z,3.58
2022-11-22T09:50:17.393Z,1.75
2022-11-22T09:52:53.831Z,1.90
2022-11-22T09:55:25.898Z,2.08
2022-11-22T09:58:10.885Z,1.90
2022-11-22T10:00:38.587Z,2.45
2022-11-22T10:03:06.022Z,2.20
2022-11-22T10:05:39.674Z,1.90
2022-11-22T10:08:27.547Z,1.58
2022-11-22T10:10:57.182Z,2.08
2022-11-22T10:13:30.574Z,2.33
2022-11-22T10:16:04.426Z,1.95
2022-11-22T10:18:47.039Z,2.00
2022-11-22T10:21:15.077Z,2.00
2022-11-22T10:23:43.006Z,3.00
2022-11-22T10:26:33.407Z,2.35
2022-11-22T10:29:15.812Z,2.15
2022-11-22T10:31:46.173Z,2.10
2022-11-22T10:34:28.808Z,1.90
2022-11-22T10:37:05.224Z,1.98
2022-11-22T10:39:34.687Z,2.15
2022-11-22T10:42:21.210Z,2.45
2022-11-22T10:44:52.767Z,2.83
2022-11-22T10:47:30.330Z,1.90
2022-11-22T10:50:12.778Z,2.30
2022-11-22T10:52:48.958Z,2.10
2022-11-22T10:55:35.068Z,1.90
2022-11-22T10:58:03.090Z,1.90
2022-11-22T11:00:32.000Z,1.90
2022-11-22T11:03:13.143Z,3.00
2022-11-22T11:06:15.297Z,2.20
2022-11-22T11:09:02.799Z,2.00
2022-11-22T11:11:23.953Z,2.25
2022-11-22T11:13:53.593Z,1.77
2022-11-22T11:16:26.283Z,1.80
2022-11-22T11:18:58.617Z,1.77
2022-11-22T11:21:27.681Z,1.85
2022-11-22T11:23:54.965Z,1.70
2022-11-22T11:26:27.734Z,1.98
2022-11-22T11:29:13.929Z,1.33
2022-11-22T11:31:45.120Z,1.58
2022-11-22T11:34:23.413Z,1.13
2022-11-22T11:36:51.626Z,1.20
2022-11-22T11:39:22.962Z,1.10
2022-11-22T11:41:50.861Z,1.42
2022-11-22T11:44:28.426Z,1.60
2022-11-22T11:46:56.080Z,1.20
2022-11-22T11:49:25.580Z,1.20
2022-11-22T11:51:57.305Z,1.33
2022-11-22T11:54:26.738Z,1.00
2022-11-22T11:56:57.482Z,1.30
2022-11-22T11:59:45.460Z,1.30
2022-11-22T12:02:16.402Z,1.13
2022-11-22T12:04:49.388Z,1.20
2022-11-22T12:07:25.799Z,1.30
2022-11-22T12:09:54.381Z,1.10
2022-11-22T12:12:40.264Z,1.30
2022-11-22T12:15:29.235Z,1.27
2022-11-22T12:18:15.080Z,1.00
2022-11-22T12:20:44.446Z,1.30
2022-11-22T12:23:32.464Z,1.10
2022-11-22T12:26:00.156Z,1.77
2022-11-22T12:28:28.608Z,1.23
2022-11-22T12:31:01.964Z,1.10
2022-11-22T12:33:41.737Z,1.05
2022-11-22T12:36:16.160Z,1.10
2022-11-22T12:38:45.249Z,1.00
2022-11-22T12:41:17.357Z,1.00
2022-11-22T12:44:04.117Z,0.95
2022-11-22T12:46:39.675Z,1.17
2022-11-22T12:49:07.198Z,0.93
2022-11-22T12:51:53.647Z,0.98
2022-11-22T12:54:24.026Z,1.10
2022-11-22T12:56:54.804Z,1.10
2022-11-22T12:59:28.896Z,1.45
2022-11-22T13:02:04.262Z,1.70
2022-11-22T13:04:41.981Z,1.60
2022-11-22T13:07:15.676Z,1.30
2022-11-22T13:09:47.078Z,1.30
2022-11-22T13:12:29.174Z,1.10
2022-11-22T13:14:56.686Z,1.13
2022-11-22T13:17:25.186Z,1.23
2022-11-22T13:19:55.170Z,1.48
2022-11-22T13:22:28.335Z,1.60
2022-11-22T13:24:58.531Z,1.35
2022-11-22T13:27:30.882Z,1.25
2022-11-22T13:30:01.877Z,1.30
2022-11-22T13:32:33.499Z,1.60
2022-11-22T13:35:19.127Z,1.50
2022-11-22T13:38:06.904Z,2.05
2022-11-22T13:40:35.448Z,1.63
2022-11-22T13:43:19.704Z,1.70
2022-11-22T13:45:50.394Z,1.58
2022-11-22T13:48:36.568Z,2.17
2022-11-22T13:51:04.292Z,1.80
2022-11-22T13:53:33.487Z,1.52
2022-11-22T13:56:16.114Z,1.63
2022-11-22T13:58:52.554Z,2.00
2022-11-22T14:01:35.656Z,2.70
2022-11-22T14:04:19.663Z,2.40
2022-11-22T14:06:50.616Z,3.97
2022-11-22T14:09:28.889Z,2.53
2022-11-22T14:12:05.796Z,2.47
2022-11-22T14:15:00.778Z,2.60
2022-11-22T14:17:42.223Z,2.75
2022-11-22T14:20:28.181Z,2.72
2022-11-22T14:23:12.000Z,2.90
2022-11-22T14:25:39.349Z,3.03
2022-11-22T14:28:25.568Z,3.13
2022-11-22T14:30:54.093Z,3.30
2022-11-22T14:33:23.418Z,3.20
2022-11-22T14:36:12.038Z,2.58
2022-11-22T14:38:40.377Z,2.30
2022-11-22T14:41:27.020Z,1.98
2022-11-22T14:43:55.195Z,1.73
2022-11-22T14:46:51.801Z,2.20
2022-11-22T14:49:16.628Z,1.95
2022-11-22T14:51:44.455Z,2.35
2022-11-22T14:54:20.694Z,2.00
2022-11-22T14:56:48.595Z,1.77
2022-11-22T14:59:23.628Z,2.40
2022-11-22T15:01:57.303Z,2.05
2022-11-22T15:09:15.256Z,1.95
2022-11-22T15:09:15.369Z,1.70
2022-11-22T15:10:29.371Z,2.40
2022-11-22T15:13:14.846Z,2.08
2022-11-22T15:59:43.818Z,1.27
2022-11-22T16:02:14.701Z,1.45
2022-11-22T16:04:47.698Z,1.23
2022-11-22T16:07:24.741Z,1.00
2022-11-22T16:09:52.210Z,1.30
2022-11-22T16:12:30.415Z,1.10
2022-11-22T16:14:57.856Z,1.40
2022-11-22T16:17:26.923Z,1.85
2022-11-22T16:19:54.693Z,1.33
2022-11-22T16:22:32.195Z,1.80
2022-11-22T16:25:18.295Z,2.20
2022-11-22T16:27:47.077Z,2.00
2022-11-22T16:30:17.155Z,2.45
2022-11-22T16:32:53.834Z,2.92
2022-11-22T16:35:29.620Z,1.90
2022-11-22T16:37:57.500Z,1.80
2022-11-22T16:40:24.806Z,1.70
2022-11-22T16:42:52.203Z,1.90
2022-11-22T16:45:20.568Z,2.25
2022-11-22T16:47:54.643Z,2.00
2022-11-22T16:50:35.403Z,1.35
2022-11-22T16:53:03.101Z,1.77
2022-11-22T16:55:30.538Z,1.50
2022-11-22T16:57:57.948Z,1.55
2022-11-22T17:00:25.272Z,2.00
2022-11-22T17:02:52.525Z,2.30
2022-11-22T17:05:20.104Z,2.00
2022-11-22T17:07:47.384Z,2.15
2022-11-22T17:10:14.865Z,1.80
2022-11-22T17:12:43.383Z,2.10
2022-11-22T17:15:13.190Z,2.58
2022-11-22T17:17:40.519Z,2.03
2022-11-22T17:20:08.273Z,1.95
2022-11-22T17:22:35.622Z,3.13
2022-11-22T17:25:02.880Z,2.75
2022-11-22T17:27:30.436Z,2.45
2022-11-22T17:29:57.789Z,2.35
2022-11-22T17:32:25.093Z,2.92
2022-11-22T17:34:52.470Z,2.70
2022-11-22T17:37:19.809Z,3.78
2022-11-22T17:39:47.040Z,3.70
2022-11-22T17:42:15.423Z,3.97
2022-11-22T17:44:42.616Z,3.55
2022-11-22T17:47:10.022Z,3.70
2022-11-22T17:49:37.452Z,3.75
2022-11-22T17:52:04.772Z,2.75
2022-11-22T17:54:32.176Z,3.13
2022-11-22T17:56:59.548Z,2.83
2022-11-22T17:59:28.267Z,3.63
2022-11-22T18:01:55.563Z,2.72
2022-11-22T18:04:23.155Z,3.00
2022-11-22T18:06:50.857Z,3.55
2022-11-22T18:09:18.137Z,2.70
2022-11-22T18:11:46.040Z,3.97
2022-11-22T18:14:13.417Z,4.05
2022-11-22T18:16:40.711Z,3.65
2022-11-22T18:19:08.404Z,2.97
2022-11-22T18:21:35.842Z,3.42
2022-11-22T18:24:03.305Z,3.42
2022-11-22T18:26:39.417Z,2.55
2022-11-22T18:31:55.796Z,3.45
2022-11-22T18:34:23.444Z,3.33
2022-11-22T18:37:06.224Z,2.70
2022-11-22T18:39:36.088Z,2.70
2022-11-22T18:42:04.658Z,2.38
2022-11-22T18:44:31.934Z,3.00
2022-11-22T18:46:59.662Z,3.45
2022-11-22T18:49:26.946Z,4.80
2022-11-22T18:51:54.408Z,3.47
2022-11-22T18:54:22.248Z,3.42
2022-11-22T18:56:54.303Z,4.70
2022-11-22T18:59:21.704Z,4.68
2022-11-22T19:01:51.437Z,4.20
2022-11-22T19:04:18.822Z,4.72
2022-11-22T19:06:46.180Z,4.80
2022-11-22T19:09:13.532Z,4.85
2022-11-22T19:11:40.857Z,4.55
2022-11-22T19:14:08.174Z,5.35
2022-11-22T19:16:35.480Z,5.10
2022-11-22T19:19:02.808Z,5.10
2022-11-22T19:21:32.631Z,5.65
2022-11-22T19:24:00.179Z,5.28
2022-11-22T19:26:28.161Z,4.93
2022-11-22T19:28:57.563Z,4.35
2022-11-22T19:31:27.687Z,4.32
2022-11-22T19:33:55.295Z,5.55
2022-11-22T19:36:32.295Z,4.60
2022-11-22T19:39:01.401Z,4.28
2022-11-22T19:41:28.848Z,4.25
2022-11-22T19:43:56.597Z,4.45
2022-11-22T19:46:24.527Z,4.10
2022-11-22T19:48:52.885Z,4.88
2022-11-22T19:51:20.598Z,4.25
2022-11-22T19:53:48.062Z,5.30
2022-11-22T19:56:18.784Z,5.07
2022-11-22T19:58:52.977Z,4.15
2022-11-22T20:01:21.634Z,9.00
2022-11-22T20:03:52.224Z,19.30
2022-11-22T20:06:19.868Z,4.28
2022-11-22T20:08:47.429Z,4.88
2022-11-22T20:11:16.295Z,5.00
2022-11-22T20:13:44.706Z,4.20
2022-11-22T20:16:13.301Z,4.43
2022-11-22T20:18:40.579Z,3.90
2022-11-22T20:21:11.929Z,4.57
2022-11-22T20:23:39.582Z,4.00
2022-11-22T20:26:06.820Z,3.70
2022-11-22T20:28:34.322Z,3.53
2022-11-22T20:31:05.311Z,4.75
2022-11-22T20:33:34.096Z,3.80
2022-11-22T20:36:05.456Z,3.78
2022-11-22T20:38:33.778Z,3.85
2022-11-22T20:41:01.486Z,4.22
2022-11-22T20:43:29.087Z,4.10
2022-11-22T20:46:15.596Z,4.00
2022-11-22T20:48:44.131Z,3.63
2022-11-22T20:51:12.858Z,3.58
2022-11-22T20:53:40.246Z,4.22
2022-11-22T20:56:07.717Z,3.70
2022-11-22T20:58:39.282Z,3.50
2022-11-22T21:01:07.580Z,4.07
2022-11-22T21:03:35.273Z,3.78
2022-11-22T21:06:14.178Z,3.55
2022-11-22T21:08:41.860Z,4.00
2022-11-22T21:11:12.169Z,4.18
2022-11-22T21:13:39.457Z,4.18
2022-11-22T21:16:21.514Z,3.92
2022-11-22T21:18:51.808Z,4.30
2022-11-22T21:21:23.148Z,3.47
2022-11-22T21:23:54.593Z,3.83
2022-11-22T21:26:23.038Z,4.25
2022-11-22T21:28:50.754Z,4.15
2022-11-22T21:31:18.328Z,4.45
2022-11-22T21:33:45.874Z,4.70
2022-11-22T21:36:13.308Z,3.92
2022-11-22T21:38:40.680Z,4.25
2022-11-22T21:41:38.045Z,5.15
2022-11-22T21:43:57.577Z,4.18
2022-11-22T21:46:25.335Z,4.78
2022-11-22T21:48:55.669Z,4.78
2022-11-22T21:51:26.006Z,4.20
2022-11-22T21:53:56.839Z,4.72
2022-11-22T21:56:24.248Z,4.35
2022-11-22T21:58:51.484Z,4.40
2022-11-22T22:01:18.919Z,4.68
2022-11-22T22:03:46.262Z,4.65
2022-11-22T22:06:13.645Z,5.22
2022-11-22T22:08:40.991Z,4.35
2022-11-22T22:11:08.424Z,4.57
2022-11-22T22:13:36.099Z,4.38
2022-11-22T22:16:06.556Z,4.57
2022-11-22T22:18:35.165Z,4.28
2022-11-22T22:21:03.295Z,4.10
2022-11-22T22:23:30.833Z,4.97
2022-11-22T22:25:59.380Z,4.95
2022-11-22T22:28:27.964Z,3.97
2022-11-22T22:31:02.335Z,3.88
2022-11-22T22:33:29.700Z,4.57
2022-11-22T22:35:57.305Z,4.70
2022-11-22T22:38:24.571Z,4.55
2022-11-22T22:40:58.830Z,4.50
2022-11-22T22:43:26.827Z,5.38
2022-11-22T22:45:54.039Z,4.75
2022-11-22T22:48:21.765Z,4.90
2022-11-22T22:50:48.989Z,3.83
2022-11-22T22:53:16.524Z,5.53
2022-11-22T22:55:43.868Z,4.22
2022-11-22T22:58:12.488Z,5.15
2022-11-22T23:00:40.140Z,4.50
2022-11-22T23:03:07.869Z,4.53
2022-11-22T23:05:35.158Z,4.85
2022-11-22T23:08:02.465Z,4.75
2022-11-22T23:10:29.817Z,4.63
2022-11-22T23:12:57.067Z,4.75
2022-11-22T23:15:43.780Z,4.93
2022-11-22T23:18:12.045Z,4.88
2022-11-22T23:20:39.682Z,4.78
2022-11-22T23:23:07.055Z,5.00
2022-11-22T23:25:34.712Z,4.55
2022-11-22T23:28:02.016Z,5.32
2022-11-22T23:30:29.248Z,4.65
2022-11-22T23:32:56.739Z,4.13
2022-11-22T23:35:24.110Z,4.07
2022-11-22T23:37:51.481Z,5.10
2022-11-22T23:40:18.907Z,4.53
2022-11-22T23:42:46.387Z,3.83
2022-11-22T23:45:13.618Z,4.38
2022-11-22T23:47:41.207Z,3.97
2022-11-22T23:50:08.791Z,4.40
2022-11-22T23:52:36.420Z,4.57
2022-11-22T23:55:03.926Z,5.10
2022-11-22T23:57:31.205Z,3.97
2022-11-22T23:59:58.404Z,3.60
